This is the latest recevied weather packets stored in our database for station/object PE2ETE-15. If no packets are shown the sender has not sent any weather packets the latest 1 day(s).
| Time | Temp. | Humidity | Pressure | Rain* | Wind** | Luminosity | Snow |
|---|---|---|---|---|---|---|---|
| 1777750407 | 15° C | 65% | 1016.5 hPa | - | - | - | - |
| 1777749513 | 15.56° C | 64% | 1016.5 hPa | - | - | - | - |
| 1777749507 | 15.56° C | 64% | 1016.5 hPa | - | - | - | - |
| 1777748613 | 15.56° C | 64% | 1016.5 hPa | - | - | - | - |
| 1777748606 | 15.56° C | 64% | 1016.5 hPa | - | - | - | - |
| 1777747713 | 16.11° C | 62% | 1016.5 hPa | - | - | - | - |
| 1777747705 | 16.11° C | 62% | 1016.5 hPa | - | - | - | - |
| 1777746813 | 16.67° C | 62% | 1016.6 hPa | - | - | - | - |
| 1777746809 | 16.67° C | 62% | 1016.6 hPa | - | - | - | - |
| 1777745912 | 17.22° C | 61% | 1016.6 hPa | - | - | - | - |
| 1777745908 | 17.22° C | 61% | 1016.6 hPa | - | - | - | - |
| 1777745012 | 17.78° C | 60% | 1016.7 hPa | - | - | - | - |
| 1777745008 | 17.78° C | 60% | 1016.7 hPa | - | - | - | - |
| 1777744112 | 18.33° C | 59% | 1016.9 hPa | - | - | - | - |
| 1777744108 | 18.33° C | 59% | 1016.9 hPa | - | - | - | - |
| 1777743212 | 18.33° C | 59% | 1016.8 hPa | - | - | - | - |
| 1777743208 | 18.33° C | 59% | 1016.8 hPa | - | - | - | - |
| 1777742312 | 18.89° C | 58% | 1017 hPa | - | - | - | - |
| 1777742308 | 18.89° C | 58% | 1017 hPa | - | - | - | - |
| 1777741412 | 18.89° C | 58% | 1017.1 hPa | - | - | - | - |
| 1777741408 | 18.89° C | 58% | 1017.1 hPa | - | - | - | - |
| 1777740512 | 18.89° C | 58% | 1017.2 hPa | - | - | - | - |
| 1777740508 | 18.89° C | 58% | 1017.2 hPa | - | - | - | - |
| 1777739613 | 19.44° C | 58% | 1017.3 hPa | - | - | - | - |
| 1777739608 | 19.44° C | 58% | 1017.3 hPa | - | - | - | - |
* Rain since midnight (hover to see other rain measurements)
** Current wind speed in m/s (hover to see current wind gust speed)